sensor_id;sensor_type;location;lat;lon;timestamp;P1;durP1;ratioP1;P2;durP2;ratioP2
74677;SDS011;67324;56.326;43.982;2023-04-03T13:15:46;7.20;;;3.85;;
74677;SDS011;67324;56.326;43.982;2023-04-03T13:23:34;10.88;;;3.67;;
74677;SDS011;67324;56.326;43.982;2023-04-03T13:26:02;7.95;;;3.50;;
74677;SDS011;67324;56.326;43.982;2023-04-03T13:28:29;7.55;;;3.50;;
74677;SDS011;67324;56.326;43.982;2023-04-03T13:33:33;6.93;;;3.20;;
74677;SDS011;67324;56.326;43.982;2023-04-03T13:36:04;5.15;;;3.20;;
74677;SDS011;67324;56.326;43.982;2023-04-03T13:38:33;8.10;;;3.55;;
74677;SDS011;67324;56.326;43.982;2023-04-03T13:41:20;6.50;;;3.30;;
74677;SDS011;67324;56.326;43.982;2023-04-03T13:43:49;7.60;;;2.88;;
74677;SDS011;67324;56.326;43.982;2023-04-03T13:48:42;13.25;;;5.07;;
74677;SDS011;67324;56.326;43.982;2023-04-03T13:53:41;11.98;;;5.75;;
74677;SDS011;67324;56.326;43.982;2023-04-03T13:56:17;17.60;;;5.82;;
74677;SDS011;67324;56.326;43.982;2023-04-03T13:58:58;14.25;;;5.15;;
74677;SDS011;67324;56.326;43.982;2023-04-03T14:01:46;18.08;;;4.88;;
74677;SDS011;67324;56.326;43.982;2023-04-03T14:04:19;12.05;;;5.35;;
74677;SDS011;67324;56.326;43.982;2023-04-03T14:06:51;15.18;;;4.65;;
74677;SDS011;67324;56.326;43.982;2023-04-03T14:09:18;16.65;;;4.55;;
74677;SDS011;67324;56.326;43.982;2023-04-03T14:11:46;16.05;;;4.55;;
74677;SDS011;67324;56.326;43.982;2023-04-03T14:14:15;11.55;;;4.28;;
74677;SDS011;67324;56.326;43.982;2023-04-03T14:16:47;9.70;;;3.88;;
74677;SDS011;67324;56.326;43.982;2023-04-03T14:19:19;14.10;;;3.87;;
74677;SDS011;67324;56.326;43.982;2023-04-03T14:21:47;10.05;;;3.70;;
74677;SDS011;67324;56.326;43.982;2023-04-03T14:24:16;11.40;;;4.15;;
74677;SDS011;67324;56.326;43.982;2023-04-03T14:26:43;11.68;;;3.95;;
74677;SDS011;67324;56.326;43.982;2023-04-03T14:29:09;14.95;;;4.60;;
74677;SDS011;67324;56.326;43.982;2023-04-03T14:31:36;8.82;;;4.03;;
74677;SDS011;67324;56.326;43.982;2023-04-03T14:34:02;12.07;;;4.55;;
74677;SDS011;67324;56.326;43.982;2023-04-03T14:36:28;13.48;;;4.07;;
74677;SDS011;67324;56.326;43.982;2023-04-03T14:38:56;14.55;;;4.65;;
74677;SDS011;67324;56.326;43.982;2023-04-03T14:41:26;13.73;;;4.47;;
74677;SDS011;67324;56.326;43.982;2023-04-03T14:43:52;11.55;;;4.00;;
74677;SDS011;67324;56.326;43.982;2023-04-03T14:46:37;12.65;;;4.13;;
74677;SDS011;67324;56.326;43.982;2023-04-03T14:49:12;12.82;;;3.78;;
74677;SDS011;67324;56.326;43.982;2023-04-03T14:51:45;12.25;;;3.95;;
74677;SDS011;67324;56.326;43.982;2023-04-03T14:54:17;12.65;;;3.72;;
74677;SDS011;67324;56.326;43.982;2023-04-03T14:56:51;10.43;;;3.72;;
74677;SDS011;67324;56.326;43.982;2023-04-03T14:59:17;9.80;;;3.60;;
74677;SDS011;67324;56.326;43.982;2023-04-03T15:01:45;13.35;;;3.95;;
74677;SDS011;67324;56.326;43.982;2023-04-03T15:04:15;11.32;;;4.20;;
74677;SDS011;67324;56.326;43.982;2023-04-03T15:06:41;11.13;;;4.03;;
74677;SDS011;67324;56.326;43.982;2023-04-03T15:09:25;9.75;;;3.90;;
74677;SDS011;67324;56.326;43.982;2023-04-03T15:14:19;9.25;;;4.13;;
74677;SDS011;67324;56.326;43.982;2023-04-03T15:16:45;10.45;;;4.20;;
74677;SDS011;67324;56.326;43.982;2023-04-03T15:19:11;10.65;;;4.75;;
74677;SDS011;67324;56.326;43.982;2023-04-03T15:21:37;9.68;;;4.65;;
74677;SDS011;67324;56.326;43.982;2023-04-03T15:24:04;9.90;;;4.22;;
74677;SDS011;67324;56.326;43.982;2023-04-03T15:26:48;8.52;;;4.95;;
74677;SDS011;67324;56.326;43.982;2023-04-03T15:29:14;8.35;;;4.72;;
74677;SDS011;67324;56.326;43.982;2023-04-03T15:31:40;9.50;;;4.80;;
74677;SDS011;67324;56.326;43.982;2023-04-03T15:34:06;11.98;;;4.90;;
74677;SDS011;67324;56.326;43.982;2023-04-03T15:36:32;9.80;;;4.63;;
74677;SDS011;67324;56.326;43.982;2023-04-03T15:38:57;11.60;;;5.25;;
74677;SDS011;67324;56.326;43.982;2023-04-03T15:41:23;10.15;;;5.30;;
74677;SDS011;67324;56.326;43.982;2023-04-03T15:43:49;12.23;;;5.60;;
74677;SDS011;67324;56.326;43.982;2023-04-03T15:46:15;13.07;;;6.18;;
74677;SDS011;67324;56.326;43.982;2023-04-03T15:48:41;9.63;;;5.63;;
74677;SDS011;67324;56.326;43.982;2023-04-03T15:51:07;12.63;;;6.53;;
74677;SDS011;67324;56.326;43.982;2023-04-03T15:53:33;11.45;;;5.93;;
74677;SDS011;67324;56.326;43.982;2023-04-03T15:55:59;12.00;;;6.13;;
74677;SDS011;67324;56.326;43.982;2023-04-03T15:58:25;12.88;;;6.18;;
74677;SDS011;67324;56.326;43.982;2023-04-03T16:00:50;13.70;;;7.13;;
74677;SDS011;67324;56.326;43.982;2023-04-03T16:03:18;15.70;;;6.63;;
74677;SDS011;67324;56.326;43.982;2023-04-03T16:05:46;12.63;;;6.97;;
74677;SDS011;67324;56.326;43.982;2023-04-03T16:08:12;14.55;;;6.93;;
74677;SDS011;67324;56.326;43.982;2023-04-03T16:10:38;17.33;;;7.80;;
74677;SDS011;67324;56.326;43.982;2023-04-03T16:13:05;18.45;;;7.50;;
74677;SDS011;67324;56.326;43.982;2023-04-03T16:15:31;16.02;;;7.80;;
74677;SDS011;67324;56.326;43.982;2023-04-03T16:17:58;14.07;;;7.35;;
74677;SDS011;67324;56.326;43.982;2023-04-03T16:20:25;17.42;;;7.03;;
74677;SDS011;67324;56.326;43.982;2023-04-03T16:22:51;14.45;;;6.95;;
74677;SDS011;67324;56.326;43.982;2023-04-03T16:25:18;15.13;;;7.47;;
74677;SDS011;67324;56.326;43.982;2023-04-03T16:27:44;16.08;;;7.55;;
74677;SDS011;67324;56.326;43.982;2023-04-03T16:30:10;13.93;;;7.15;;
74677;SDS011;67324;56.326;43.982;2023-04-03T16:32:36;20.27;;;7.30;;
74677;SDS011;67324;56.326;43.982;2023-04-03T16:35:04;19.23;;;7.80;;
74677;SDS011;67324;56.326;43.982;2023-04-03T16:37:30;23.20;;;7.70;;
74677;SDS011;67324;56.326;43.982;2023-04-03T16:39:56;23.38;;;8.15;;
74677;SDS011;67324;56.326;43.982;2023-04-03T16:42:24;15.65;;;7.50;;
74677;SDS011;67324;56.326;43.982;2023-04-03T16:44:50;23.23;;;8.05;;
74677;SDS011;67324;56.326;43.982;2023-04-03T16:47:16;22.83;;;6.70;;
74677;SDS011;67324;56.326;43.982;2023-04-03T16:49:44;20.80;;;6.93;;
74677;SDS011;67324;56.326;43.982;2023-04-03T16:52:11;12.52;;;6.93;;
74677;SDS011;67324;56.326;43.982;2023-04-03T16:54:37;11.55;;;5.97;;
74677;SDS011;67324;56.326;43.982;2023-04-03T16:57:03;14.40;;;6.20;;
74677;SDS011;67324;56.326;43.982;2023-04-03T16:59:28;12.95;;;6.38;;
74677;SDS011;67324;56.326;43.982;2023-04-03T17:01:54;14.07;;;6.40;;
74677;SDS011;67324;56.326;43.982;2023-04-03T17:04:20;11.25;;;5.72;;
74677;SDS011;67324;56.326;43.982;2023-04-03T17:06:46;14.07;;;5.82;;
74677;SDS011;67324;56.326;43.982;2023-04-03T17:09:12;9.93;;;5.60;;
74677;SDS011;67324;56.326;43.982;2023-04-03T17:11:38;13.07;;;5.70;;
74677;SDS011;67324;56.326;43.982;2023-04-03T17:14:04;13.15;;;5.22;;
74677;SDS011;67324;56.326;43.982;2023-04-03T17:16:49;10.15;;;5.63;;
74677;SDS011;67324;56.326;43.982;2023-04-03T17:19:15;11.85;;;5.78;;
74677;SDS011;67324;56.326;43.982;2023-04-03T17:21:42;11.13;;;5.90;;
74677;SDS011;67324;56.326;43.982;2023-04-03T17:24:09;12.80;;;6.38;;
74677;SDS011;67324;56.326;43.982;2023-04-03T17:26:39;13.73;;;5.95;;
74677;SDS011;67324;56.326;43.982;2023-04-03T17:29:06;13.25;;;5.93;;
74677;SDS011;67324;56.326;43.982;2023-04-03T17:31:34;11.18;;;6.20;;
74677;SDS011;67324;56.326;43.982;2023-04-03T17:33:59;16.90;;;6.40;;
74677;SDS011;67324;56.326;43.982;2023-04-03T17:36:32;25.45;;;7.63;;
74677;SDS011;67324;56.326;43.982;2023-04-03T17:38:59;39.80;;;9.95;;
74677;SDS011;67324;56.326;43.982;2023-04-03T17:41:34;52.03;;;12.00;;
74677;SDS011;67324;56.326;43.982;2023-04-03T17:44:00;58.92;;;12.73;;
74677;SDS011;67324;56.326;43.982;2023-04-03T17:46:27;34.28;;;10.07;;
74677;SDS011;67324;56.326;43.982;2023-04-03T17:48:54;31.15;;;8.27;;
74677;SDS011;67324;56.326;43.982;2023-04-03T17:51:21;27.75;;;7.32;;
74677;SDS011;67324;56.326;43.982;2023-04-03T17:53:50;14.18;;;6.10;;
74677;SDS011;67324;56.326;43.982;2023-04-03T17:56:17;11.75;;;5.40;;
74677;SDS011;67324;56.326;43.982;2023-04-03T17:58:47;11.30;;;5.10;;
74677;SDS011;67324;56.326;43.982;2023-04-03T18:01:19;13.45;;;4.90;;
74677;SDS011;67324;56.326;43.982;2023-04-03T18:03:47;9.95;;;4.28;;
74677;SDS011;67324;56.326;43.982;2023-04-03T18:06:36;11.10;;;5.38;;
74677;SDS011;67324;56.326;43.982;2023-04-03T18:09:28;9.00;;;4.07;;
74677;SDS011;67324;56.326;43.982;2023-04-03T18:11:57;8.02;;;3.97;;
74677;SDS011;67324;56.326;43.982;2023-04-03T18:14:26;6.68;;;3.92;;
74677;SDS011;67324;56.326;43.982;2023-04-03T18:16:53;7.00;;;3.45;;
74677;SDS011;67324;56.326;43.982;2023-04-03T18:19:21;5.35;;;3.80;;
74677;SDS011;67324;56.326;43.982;2023-04-03T18:21:48;6.95;;;3.80;;
74677;SDS011;67324;56.326;43.982;2023-04-03T18:24:15;7.97;;;3.63;;
74677;SDS011;67324;56.326;43.982;2023-04-03T18:26:42;6.05;;;3.60;;
74677;SDS011;67324;56.326;43.982;2023-04-03T18:29:12;8.63;;;3.35;;
74677;SDS011;67324;56.326;43.982;2023-04-03T18:31:39;7.93;;;3.92;;
74677;SDS011;67324;56.326;43.982;2023-04-03T18:34:08;7.07;;;3.42;;
74677;SDS011;67324;56.326;43.982;2023-04-03T18:36:34;8.30;;;3.78;;
74677;SDS011;67324;56.326;43.982;2023-04-03T18:38:59;6.10;;;3.42;;
74677;SDS011;67324;56.326;43.982;2023-04-03T18:41:26;5.15;;;3.40;;
74677;SDS011;67324;56.326;43.982;2023-04-03T18:43:55;8.88;;;3.65;;
74677;SDS011;67324;56.326;43.982;2023-04-03T18:46:24;6.13;;;3.60;;
74677;SDS011;67324;56.326;43.982;2023-04-03T18:48:50;8.38;;;3.22;;
74677;SDS011;67324;56.326;43.982;2023-04-03T18:51:17;7.25;;;3.55;;
74677;SDS011;67324;56.326;43.982;2023-04-03T18:53:43;7.55;;;3.30;;
74677;SDS011;67324;56.326;43.982;2023-04-03T18:56:09;7.30;;;3.85;;
74677;SDS011;67324;56.326;43.982;2023-04-03T18:58:35;5.70;;;3.25;;
74677;SDS011;67324;56.326;43.982;2023-04-03T19:01:01;9.38;;;3.65;;
74677;SDS011;67324;56.326;43.982;2023-04-03T19:03:29;5.72;;;3.05;;
74677;SDS011;67324;56.326;43.982;2023-04-03T19:05:55;5.43;;;3.08;;
74677;SDS011;67324;56.326;43.982;2023-04-03T19:08:21;7.30;;;3.95;;
74677;SDS011;67324;56.326;43.982;2023-04-03T19:10:48;6.40;;;3.55;;
74677;SDS011;67324;56.326;43.982;2023-04-03T19:13:14;5.78;;;3.20;;
74677;SDS011;67324;56.326;43.982;2023-04-03T19:15:40;4.40;;;3.25;;
74677;SDS011;67324;56.326;43.982;2023-04-03T19:18:06;4.20;;;3.38;;
74677;SDS011;67324;56.326;43.982;2023-04-03T19:20:32;7.05;;;3.67;;
74677;SDS011;67324;56.326;43.982;2023-04-03T19:22:58;6.15;;;3.40;;
74677;SDS011;67324;56.326;43.982;2023-04-03T19:25:23;6.50;;;3.50;;
74677;SDS011;67324;56.326;43.982;2023-04-03T19:27:49;6.47;;;3.95;;
74677;SDS011;67324;56.326;43.982;2023-04-03T19:30:15;4.60;;;3.15;;
74677;SDS011;67324;56.326;43.982;2023-04-03T19:32:41;6.47;;;3.53;;
74677;SDS011;67324;56.326;43.982;2023-04-03T19:35:07;7.13;;;4.35;;
74677;SDS011;67324;56.326;43.982;2023-04-03T19:37:33;8.90;;;3.58;;
74677;SDS011;67324;56.326;43.982;2023-04-03T19:39:59;6.47;;;3.45;;
74677;SDS011;67324;56.326;43.982;2023-04-03T19:42:28;4.30;;;3.00;;
74677;SDS011;67324;56.326;43.982;2023-04-03T19:44:55;6.95;;;3.65;;
74677;SDS011;67324;56.326;43.982;2023-04-03T19:47:22;7.28;;;3.65;;
74677;SDS011;67324;56.326;43.982;2023-04-03T19:49:49;4.85;;;3.20;;
74677;SDS011;67324;56.326;43.982;2023-04-03T19:52:15;5.95;;;3.40;;
74677;SDS011;67324;56.326;43.982;2023-04-03T19:54:40;5.20;;;3.60;;
74677;SDS011;67324;56.326;43.982;2023-04-03T19:57:06;6.93;;;3.20;;
74677;SDS011;67324;56.326;43.982;2023-04-03T19:59:33;6.20;;;3.33;;
74677;SDS011;67324;56.326;43.982;2023-04-03T20:01:59;6.20;;;3.47;;
74677;SDS011;67324;56.326;43.982;2023-04-03T20:04:25;5.90;;;3.40;;
74677;SDS011;67324;56.326;43.982;2023-04-03T20:06:51;4.53;;;3.20;;
74677;SDS011;67324;56.326;43.982;2023-04-03T20:09:17;5.78;;;3.38;;
74677;SDS011;67324;56.326;43.982;2023-04-03T20:11:43;6.20;;;3.40;;
74677;SDS011;67324;56.326;43.982;2023-04-03T20:14:12;6.95;;;3.78;;
74677;SDS011;67324;56.326;43.982;2023-04-03T20:16:42;5.47;;;3.28;;
74677;SDS011;67324;56.326;43.982;2023-04-03T20:19:08;4.95;;;2.85;;
74677;SDS011;67324;56.326;43.982;2023-04-03T20:21:34;7.15;;;3.22;;
74677;SDS011;67324;56.326;43.982;2023-04-03T20:24:01;7.30;;;3.55;;
74677;SDS011;67324;56.326;43.982;2023-04-03T20:26:29;5.95;;;3.20;;
74677;SDS011;67324;56.326;43.982;2023-04-03T20:28:57;5.53;;;3.50;;
74677;SDS011;67324;56.326;43.982;2023-04-03T20:31:25;5.00;;;3.10;;
74677;SDS011;67324;56.326;43.982;2023-04-03T20:33:52;4.85;;;3.38;;
74677;SDS011;67324;56.326;43.982;2023-04-03T20:36:18;9.43;;;3.78;;
74677;SDS011;67324;56.326;43.982;2023-04-03T20:38:46;6.88;;;3.50;;
74677;SDS011;67324;56.326;43.982;2023-04-03T20:41:13;5.97;;;3.58;;
74677;SDS011;67324;56.326;43.982;2023-04-03T20:43:40;5.85;;;3.30;;
74677;SDS011;67324;56.326;43.982;2023-04-03T20:46:08;6.60;;;2.80;;
74677;SDS011;67324;56.326;43.982;2023-04-03T20:48:44;5.38;;;2.95;;
74677;SDS011;67324;56.326;43.982;2023-04-03T20:51:13;4.00;;;2.80;;
74677;SDS011;67324;56.326;43.982;2023-04-03T20:53:40;4.53;;;2.83;;
74677;SDS011;67324;56.326;43.982;2023-04-03T20:56:07;4.82;;;3.10;;
74677;SDS011;67324;56.326;43.982;2023-04-03T20:58:33;6.25;;;3.00;;
74677;SDS011;67324;56.326;43.982;2023-04-03T21:01:10;4.05;;;2.92;;
74677;SDS011;67324;56.326;43.982;2023-04-03T21:03:41;5.78;;;3.13;;
74677;SDS011;67324;56.326;43.982;2023-04-03T21:20:37;5.03;;;3.30;;
74677;SDS011;67324;56.326;43.982;2023-04-03T21:23:04;5.82;;;2.80;;
74677;SDS011;67324;56.326;43.982;2023-04-03T21:25:31;4.32;;;2.55;;
74677;SDS011;67324;56.326;43.982;2023-04-03T21:27:57;5.10;;;2.70;;
74677;SDS011;67324;56.326;43.982;2023-04-03T21:30:23;4.03;;;2.63;;
74677;SDS011;67324;56.326;43.982;2023-04-03T21:32:50;5.47;;;2.70;;
74677;SDS011;67324;56.326;43.982;2023-04-03T21:35:15;5.38;;;2.78;;
74677;SDS011;67324;56.326;43.982;2023-04-03T21:37:41;4.03;;;2.45;;
74677;SDS011;67324;56.326;43.982;2023-04-03T21:40:07;5.18;;;2.65;;
74677;SDS011;67324;56.326;43.982;2023-04-03T21:42:33;5.43;;;2.90;;
74677;SDS011;67324;56.326;43.982;2023-04-03T21:44:59;5.30;;;2.42;;
74677;SDS011;67324;56.326;43.982;2023-04-03T21:47:25;4.93;;;2.72;;
74677;SDS011;67324;56.326;43.982;2023-04-03T21:49:51;5.22;;;2.80;;
74677;SDS011;67324;56.326;43.982;2023-04-03T21:52:16;5.95;;;2.65;;
74677;SDS011;67324;56.326;43.982;2023-04-03T21:54:42;6.47;;;2.80;;
74677;SDS011;67324;56.326;43.982;2023-04-03T21:57:08;5.13;;;2.80;;
74677;SDS011;67324;56.326;43.982;2023-04-03T21:59:37;5.82;;;2.50;;
74677;SDS011;67324;56.326;43.982;2023-04-03T22:02:03;4.90;;;2.58;;
74677;SDS011;67324;56.326;43.982;2023-04-03T22:04:29;3.53;;;2.78;;
74677;SDS011;67324;56.326;43.982;2023-04-03T22:06:55;5.13;;;2.65;;
74677;SDS011;67324;56.326;43.982;2023-04-03T22:09:21;5.00;;;2.60;;
74677;SDS011;67324;56.326;43.982;2023-04-03T22:11:48;5.82;;;2.95;;
74677;SDS011;67324;56.326;43.982;2023-04-03T22:14:14;4.75;;;2.95;;
74677;SDS011;67324;56.326;43.982;2023-04-03T22:16:41;4.72;;;2.58;;
74677;SDS011;67324;56.326;43.982;2023-04-03T22:19:11;4.75;;;2.70;;
74677;SDS011;67324;56.326;43.982;2023-04-03T22:21:38;5.93;;;2.63;;
74677;SDS011;67324;56.326;43.982;2023-04-03T22:24:05;5.13;;;2.50;;
74677;SDS011;67324;56.326;43.982;2023-04-03T22:26:31;4.15;;;2.63;;
74677;SDS011;67324;56.326;43.982;2023-04-03T22:28:57;6.07;;;2.90;;
74677;SDS011;67324;56.326;43.982;2023-04-03T22:31:23;4.88;;;3.00;;
74677;SDS011;67324;56.326;43.982;2023-04-03T22:33:49;4.55;;;2.80;;
74677;SDS011;67324;56.326;43.982;2023-04-03T22:36:14;4.93;;;2.90;;
74677;SDS011;67324;56.326;43.982;2023-04-03T22:38:40;5.15;;;2.90;;
74677;SDS011;67324;56.326;43.982;2023-04-03T22:41:09;4.00;;;2.42;;
74677;SDS011;67324;56.326;43.982;2023-04-03T22:43:36;4.15;;;2.63;;
74677;SDS011;67324;56.326;43.982;2023-04-03T22:46:03;6.25;;;2.78;;
74677;SDS011;67324;56.326;43.982;2023-04-03T22:48:29;5.40;;;2.55;;
74677;SDS011;67324;56.326;43.982;2023-04-03T22:50:56;4.35;;;2.72;;
74677;SDS011;67324;56.326;43.982;2023-04-03T22:53:24;5.05;;;2.72;;
74677;SDS011;67324;56.326;43.982;2023-04-03T22:55:56;4.75;;;2.97;;
74677;SDS011;67324;56.326;43.982;2023-04-03T22:58:26;4.88;;;2.33;;
74677;SDS011;67324;56.326;43.982;2023-04-03T23:01:11;5.68;;;3.00;;
74677;SDS011;67324;56.326;43.982;2023-04-03T23:03:39;6.35;;;3.00;;
74677;SDS011;67324;56.326;43.982;2023-04-03T23:06:06;4.40;;;2.80;;
74677;SDS011;67324;56.326;43.982;2023-04-03T23:08:34;4.18;;;2.60;;
74677;SDS011;67324;56.326;43.982;2023-04-03T23:11:03;5.63;;;2.85;;
74677;SDS011;67324;56.326;43.982;2023-04-03T23:13:31;5.35;;;2.70;;
74677;SDS011;67324;56.326;43.982;2023-04-03T23:15:57;4.38;;;2.60;;
74677;SDS011;67324;56.326;43.982;2023-04-03T23:18:25;4.65;;;2.60;;
74677;SDS011;67324;56.326;43.982;2023-04-03T23:20:53;5.72;;;2.78;;
74677;SDS011;67324;56.326;43.982;2023-04-03T23:23:20;3.78;;;2.70;;
74677;SDS011;67324;56.326;43.982;2023-04-03T23:26:05;4.80;;;2.80;;
74677;SDS011;67324;56.326;43.982;2023-04-03T23:28:30;7.38;;;2.92;;
74677;SDS011;67324;56.326;43.982;2023-04-03T23:30:57;3.92;;;2.80;;
74677;SDS011;67324;56.326;43.982;2023-04-03T23:33:27;5.38;;;2.67;;
74677;SDS011;67324;56.326;43.982;2023-04-03T23:35:54;4.35;;;2.63;;
74677;SDS011;67324;56.326;43.982;2023-04-03T23:38:20;5.22;;;2.85;;
74677;SDS011;67324;56.326;43.982;2023-04-03T23:40:46;4.47;;;2.58;;
74677;SDS011;67324;56.326;43.982;2023-04-03T23:43:12;4.95;;;2.42;;
74677;SDS011;67324;56.326;43.982;2023-04-03T23:45:38;6.55;;;2.72;;
74677;SDS011;67324;56.326;43.982;2023-04-03T23:48:04;4.00;;;2.63;;
74677;SDS011;67324;56.326;43.982;2023-04-03T23:50:30;5.43;;;2.80;;
74677;SDS011;67324;56.326;43.982;2023-04-03T23:53:14;7.30;;;2.78;;
74677;SDS011;67324;56.326;43.982;2023-04-03T23:55:40;5.68;;;3.10;;
74677;SDS011;67324;56.326;43.982;2023-04-03T23:58:06;7.70;;;2.72;;
